createdAt,value
2018-10-06T00:00:51.349Z,1006.13
2018-10-06T00:01:51.345Z,1006.11
2018-10-06T00:02:51.343Z,1006.13
2018-10-06T00:03:51.335Z,1006.10
2018-10-06T00:04:51.330Z,1006.08
2018-10-06T00:05:51.321Z,1006.12
2018-10-06T00:06:51.315Z,1006.08
2018-10-06T00:07:51.309Z,1006.10
2018-10-06T00:08:51.309Z,1006.06
2018-10-06T00:09:51.297Z,1006.08
2018-10-06T00:10:51.292Z,1006.06
2018-10-06T00:11:51.281Z,1006.06
2018-10-06T00:12:51.283Z,1006.07
2018-10-06T00:13:51.270Z,1006.02
2018-10-06T00:14:51.263Z,1006.05
2018-10-06T00:15:51.266Z,1006.03
2018-10-06T00:16:51.256Z,1006.04
2018-10-06T00:17:51.251Z,1006.03
2018-10-06T00:18:51.250Z,1006.01
2018-10-06T00:19:51.240Z,1006.01
2018-10-06T00:20:51.233Z,1005.98
2018-10-06T00:21:51.223Z,1006.00
2018-10-06T00:22:51.217Z,1005.97
2018-10-06T00:23:51.218Z,1005.98
2018-10-06T00:24:51.211Z,1005.98
2018-10-06T00:25:51.206Z,1005.94
2018-10-06T00:26:51.199Z,1005.95
2018-10-06T00:27:51.200Z,1005.93
2018-10-06T00:28:51.188Z,1005.93
2018-10-06T00:29:51.185Z,1005.98
2018-10-06T00:30:51.175Z,1005.97
2018-10-06T00:31:51.168Z,1005.97
2018-10-06T00:32:51.167Z,1005.91
2018-10-06T00:33:51.155Z,1005.92
2018-10-06T00:34:51.157Z,1005.92
2018-10-06T00:35:51.140Z,1005.92
2018-10-06T00:36:51.138Z,1005.91
2018-10-06T00:37:51.148Z,1005.89
2018-10-06T00:38:51.135Z,1005.85
2018-10-06T00:39:51.123Z,1005.86
2018-10-06T00:40:51.119Z,1005.83
2018-10-06T00:41:51.104Z,1005.83
2018-10-06T00:42:51.102Z,1005.84
2018-10-06T00:43:51.091Z,1005.84
2018-10-06T00:44:51.089Z,1005.83
2018-10-06T00:45:51.081Z,1005.86
2018-10-06T00:46:51.078Z,1005.83
2018-10-06T00:47:51.073Z,1005.85
2018-10-06T00:48:51.068Z,1005.85
2018-10-06T00:49:51.062Z,1005.84
2018-10-06T00:50:51.055Z,1005.84
2018-10-06T00:51:51.052Z,1005.84
2018-10-06T00:52:51.040Z,1005.81
2018-10-06T00:53:51.035Z,1005.83
2018-10-06T00:54:51.034Z,1005.82
2018-10-06T00:55:51.023Z,1005.77
2018-10-06T00:56:51.018Z,1005.75
2018-10-06T00:57:51.013Z,1005.73
2018-10-06T00:58:51.007Z,1005.70
2018-10-06T00:59:50.999Z,1005.68
2018-10-06T01:00:50.988Z,1005.69
2018-10-06T01:01:50.989Z,1005.71
2018-10-06T01:02:50.982Z,1005.69
2018-10-06T01:03:50.974Z,1005.71
2018-10-06T01:04:50.969Z,1005.71
2018-10-06T01:05:50.966Z,1005.67
2018-10-06T01:06:50.958Z,1005.71
2018-10-06T01:07:50.946Z,1005.69
2018-10-06T01:08:50.940Z,1005.69
2018-10-06T01:09:50.934Z,1005.66
2018-10-06T01:10:50.932Z,1005.68
2018-10-06T01:11:50.928Z,1005.68
2018-10-06T01:12:50.923Z,1005.66
2018-10-06T01:13:50.914Z,1005.60
2018-10-06T01:14:50.907Z,1005.65
2018-10-06T01:15:50.895Z,1005.60
2018-10-06T01:16:50.891Z,1005.58
2018-10-06T01:17:50.886Z,1005.56
2018-10-06T01:18:50.884Z,1005.55
2018-10-06T01:19:50.877Z,1005.53
2018-10-06T01:20:50.865Z,1005.54
2018-10-06T01:21:50.863Z,1005.48
2018-10-06T01:22:50.857Z,1005.48
2018-10-06T01:23:50.851Z,1005.53
2018-10-06T01:24:50.840Z,1005.50
2018-10-06T01:25:50.837Z,1005.50
2018-10-06T01:26:50.830Z,1005.49
2018-10-06T01:27:50.826Z,1005.49
2018-10-06T01:28:50.816Z,1005.46
2018-10-06T01:29:50.813Z,1005.47
2018-10-06T01:30:50.803Z,1005.49
2018-10-06T01:31:50.803Z,1005.45
2018-10-06T01:32:50.792Z,1005.44
2018-10-06T01:33:50.785Z,1005.49
2018-10-06T01:34:50.801Z,1005.46
2018-10-06T01:35:50.773Z,1005.48
2018-10-06T01:36:50.767Z,1005.46
2018-10-06T01:37:50.764Z,1005.41
2018-10-06T01:38:50.758Z,1005.43
2018-10-06T01:39:50.750Z,1005.39
2018-10-06T01:40:50.746Z,1005.37
2018-10-06T01:41:50.736Z,1005.40
2018-10-06T01:42:50.731Z,1005.41
2018-10-06T01:43:50.725Z,1005.40
2018-10-06T01:44:50.719Z,1005.37
2018-10-06T01:45:50.713Z,1005.35
2018-10-06T01:46:50.705Z,1005.38
2018-10-06T01:47:50.697Z,1005.34
2018-10-06T01:48:50.694Z,1005.31
2018-10-06T01:49:50.732Z,1005.31
2018-10-06T01:50:50.725Z,1005.28
2018-10-06T01:51:50.676Z,1005.30
2018-10-06T01:52:50.669Z,1005.27
2018-10-06T01:53:50.665Z,1005.27
2018-10-06T01:54:50.654Z,1005.24
2018-10-06T01:55:50.650Z,1005.24
2018-10-06T01:56:50.642Z,1005.25
2018-10-06T01:57:50.647Z,1005.25
2018-10-06T01:58:50.633Z,1005.23
2018-10-06T01:59:50.630Z,1005.20
2018-10-06T02:00:50.621Z,1005.17
2018-10-06T02:01:50.615Z,1005.17
2018-10-06T02:02:50.606Z,1005.17
2018-10-06T02:03:50.600Z,1005.15
2018-10-06T02:04:50.592Z,1005.14
2018-10-06T02:05:50.592Z,1005.13
2018-10-06T02:06:50.582Z,1005.14
2018-10-06T02:07:50.578Z,1005.10
2018-10-06T02:08:50.565Z,1005.08
2018-10-06T02:09:50.565Z,1005.05
2018-10-06T02:10:50.552Z,1005.03
2018-10-06T02:11:50.549Z,1005.03
2018-10-06T02:12:50.547Z,1005.01
2018-10-06T02:13:50.532Z,1004.99
2018-10-06T02:14:50.532Z,1005.00
2018-10-06T02:15:50.530Z,1004.98
2018-10-06T02:16:50.519Z,1004.99
2018-10-06T02:17:50.518Z,1004.98
2018-10-06T02:18:50.502Z,1004.97
2018-10-06T02:19:50.499Z,1004.97
2018-10-06T02:20:50.493Z,1004.95
2018-10-06T02:21:50.490Z,1004.97
2018-10-06T02:22:50.482Z,1005.01
2018-10-06T02:23:50.469Z,1005.00
2018-10-06T02:24:50.469Z,1005.00
2018-10-06T02:25:50.462Z,1004.96
2018-10-06T02:26:50.454Z,1005.02
2018-10-06T02:27:50.449Z,1004.96
2018-10-06T02:28:50.440Z,1004.97
2018-10-06T02:29:50.467Z,1004.97
2018-10-06T02:30:50.434Z,1004.96
2018-10-06T02:31:50.422Z,1004.93
2018-10-06T02:32:50.423Z,1004.95
2018-10-06T02:33:50.414Z,1004.94
2018-10-06T02:34:50.407Z,1004.95
2018-10-06T02:35:50.400Z,1004.95
2018-10-06T02:36:50.454Z,1004.96
2018-10-06T02:37:50.389Z,1004.95
2018-10-06T02:38:50.378Z,1004.97
2018-10-06T02:39:50.373Z,1004.99
2018-10-06T02:40:50.362Z,1004.98
2018-10-06T02:41:50.363Z,1004.98
2018-10-06T02:42:50.356Z,1005.02
2018-10-06T02:43:50.350Z,1005.02
2018-10-06T02:44:50.344Z,1005.02
2018-10-06T02:45:50.340Z,1005.03
2018-10-06T02:46:50.334Z,1005.04
2018-10-06T02:47:50.324Z,1005.02
2018-10-06T02:48:50.314Z,1005.04
2018-10-06T02:49:50.310Z,1005.02
2018-10-06T02:50:50.310Z,1005.02
2018-10-06T02:51:50.296Z,1005.06
2018-10-06T02:52:50.293Z,1005.03
2018-10-06T02:53:50.283Z,1005.07
2018-10-06T02:54:50.280Z,1005.05
2018-10-06T02:55:50.273Z,1005.07
2018-10-06T02:56:50.263Z,1005.05
2018-10-06T02:57:50.255Z,1005.00
2018-10-06T02:58:50.253Z,1005.00
2018-10-06T02:59:50.240Z,1004.99
2018-10-06T03:00:50.240Z,1005.00
2018-10-06T03:01:50.230Z,1004.99
2018-10-06T03:02:50.225Z,1005.00
2018-10-06T03:03:50.222Z,1004.98
2018-10-06T03:04:50.218Z,1004.99
2018-10-06T03:05:50.205Z,1004.98
2018-10-06T03:06:50.199Z,1005.00
2018-10-06T03:07:50.192Z,1004.96
2018-10-06T03:08:50.189Z,1004.95
2018-10-06T03:09:50.184Z,1004.96
2018-10-06T03:10:50.178Z,1004.91
2018-10-06T03:11:50.173Z,1004.91
2018-10-06T03:12:50.165Z,1004.94
2018-10-06T03:13:50.154Z,1004.95
2018-10-06T03:14:50.149Z,1004.94
2018-10-06T03:15:50.149Z,1004.91
2018-10-06T03:16:50.144Z,1004.88
2018-10-06T03:17:50.132Z,1004.88
2018-10-06T03:18:50.133Z,1004.84
2018-10-06T03:19:50.116Z,1004.87
2018-10-06T03:20:50.108Z,1004.87
2018-10-06T03:21:50.103Z,1004.87
2018-10-06T03:22:50.091Z,1004.87
2018-10-06T03:23:50.099Z,1004.88
2018-10-06T03:24:50.084Z,1004.87
2018-10-06T03:25:50.084Z,1004.83
2018-10-06T03:26:50.074Z,1004.83
2018-10-06T03:27:50.072Z,1004.82
2018-10-06T03:29:04.622Z,1004.79
2018-10-06T03:29:50.050Z,1004.82
2018-10-06T03:30:50.054Z,1004.74
2018-10-06T03:31:50.034Z,1004.72
2018-10-06T03:32:50.027Z,1004.71
2018-10-06T03:33:50.022Z,1004.69
2018-10-06T03:34:50.021Z,1004.67
2018-10-06T03:35:50.032Z,1004.69
2018-10-06T03:36:50.003Z,1004.70
2018-10-06T03:37:49.997Z,1004.69
2018-10-06T03:38:49.991Z,1004.68
2018-10-06T03:39:49.981Z,1004.67
2018-10-06T03:40:49.975Z,1004.62
2018-10-06T03:41:49.973Z,1004.61
2018-10-06T03:42:49.971Z,1004.67
2018-10-06T03:43:49.959Z,1004.63
2018-10-06T03:44:49.952Z,1004.64
2018-10-06T03:45:49.940Z,1004.70
2018-10-06T03:46:49.935Z,1004.66
2018-10-06T03:47:49.930Z,1004.61
2018-10-06T03:48:49.924Z,1004.61
2018-10-06T03:49:49.920Z,1004.61
2018-10-06T03:50:49.913Z,1004.58
2018-10-06T03:51:49.903Z,1004.59
2018-10-06T03:52:49.895Z,1004.58
2018-10-06T03:53:49.946Z,1004.52
2018-10-06T03:54:49.882Z,1004.53
2018-10-06T03:55:49.875Z,1004.48
2018-10-06T03:56:49.878Z,1004.47
2018-10-06T03:57:49.864Z,1004.50
2018-10-06T03:58:49.862Z,1004.48
2018-10-06T03:59:49.851Z,1004.46
2018-10-06T04:00:49.844Z,1004.45
2018-10-06T04:01:49.840Z,1004.47
2018-10-06T04:02:49.830Z,1004.47
2018-10-06T04:03:49.833Z,1004.46
2018-10-06T04:04:49.815Z,1004.46
2018-10-06T04:05:49.815Z,1004.46
2018-10-06T04:06:49.806Z,1004.44
2018-10-06T04:07:49.805Z,1004.44
2018-10-06T04:08:49.787Z,1004.43
2018-10-06T04:09:49.781Z,1004.38
2018-10-06T04:10:49.777Z,1004.42
2018-10-06T04:11:49.769Z,1004.41
2018-10-06T04:12:49.765Z,1004.37
2018-10-06T04:13:49.762Z,1004.39
2018-10-06T04:14:49.756Z,1004.42
2018-10-06T04:15:49.739Z,1004.40
2018-10-06T04:16:49.741Z,1004.38
2018-10-06T04:17:49.733Z,1004.37
2018-10-06T04:18:49.726Z,1004.38
2018-10-06T04:19:49.726Z,1004.36
2018-10-06T04:20:49.716Z,1004.40
2018-10-06T04:21:49.702Z,1004.38
2018-10-06T04:22:49.729Z,1004.35
2018-10-06T04:23:49.687Z,1004.38
2018-10-06T04:24:49.681Z,1004.37
2018-10-06T04:25:49.679Z,1004.35
2018-10-06T04:26:49.675Z,1004.35
2018-10-06T04:27:49.666Z,1004.27
2018-10-06T04:28:49.657Z,1004.33
2018-10-06T04:29:49.651Z,1004.27
2018-10-06T04:30:49.644Z,1004.27
2018-10-06T04:31:49.639Z,1004.22
2018-10-06T04:32:49.631Z,1004.20
2018-10-06T04:33:49.625Z,1004.23
2018-10-06T04:34:49.616Z,1004.20
2018-10-06T04:35:49.608Z,1004.20
2018-10-06T04:36:49.604Z,1004.16
2018-10-06T04:37:49.599Z,1004.15
2018-10-06T04:38:49.585Z,1004.18
2018-10-06T04:39:49.588Z,1004.14
2018-10-06T04:40:49.579Z,1004.11
2018-10-06T04:41:49.564Z,1004.12
2018-10-06T04:42:49.557Z,1004.10
2018-10-06T04:43:49.560Z,1004.10
2018-10-06T04:44:49.544Z,1004.10
2018-10-06T04:45:49.539Z,1004.10
2018-10-06T04:46:49.530Z,1004.07
2018-10-06T04:47:49.531Z,1004.09
2018-10-06T04:48:49.523Z,1004.08
2018-10-06T04:49:49.512Z,1004.05
2018-10-06T04:50:49.507Z,1004.05
2018-10-06T04:51:49.498Z,1004.04
2018-10-06T04:52:49.493Z,1004.01
2018-10-06T04:53:49.486Z,1003.99
2018-10-06T04:54:49.483Z,1004.00
2018-10-06T04:55:49.475Z,1003.99
2018-10-06T04:56:49.470Z,1003.97
2018-10-06T04:57:49.468Z,1004.01
2018-10-06T04:58:49.453Z,1004.01
2018-10-06T04:59:49.460Z,1004.00
2018-10-06T05:00:49.438Z,1003.98
2018-10-06T05:01:49.431Z,1004.01
2018-10-06T05:02:49.426Z,1003.99
2018-10-06T05:03:49.419Z,1004.00
2018-10-06T05:04:49.411Z,1004.02
2018-10-06T05:05:49.405Z,1004.02
2018-10-06T05:06:49.398Z,1003.97
2018-10-06T05:07:49.393Z,1003.91
2018-10-06T05:08:49.386Z,1003.93
2018-10-06T05:09:49.381Z,1003.88
2018-10-06T05:10:49.369Z,1003.86
2018-10-06T05:11:49.365Z,1003.85
2018-10-06T05:12:49.355Z,1003.87
2018-10-06T05:13:49.349Z,1003.85
2018-10-06T05:14:49.339Z,1003.84
2018-10-06T05:15:49.335Z,1003.87
2018-10-06T05:16:49.326Z,1003.82
2018-10-06T05:17:49.322Z,1003.82
2018-10-06T05:18:49.310Z,1003.79
2018-10-06T05:19:49.304Z,1003.83
2018-10-06T05:20:49.299Z,1003.79
2018-10-06T05:21:49.294Z,1003.79
2018-10-06T05:22:49.285Z,1003.78
2018-10-06T05:23:49.281Z,1003.79
2018-10-06T05:24:49.288Z,1003.83
2018-10-06T05:25:49.266Z,1003.79
2018-10-06T05:26:49.259Z,1003.81
2018-10-06T05:27:49.252Z,1003.83
2018-10-06T05:28:49.243Z,1003.85
2018-10-06T05:29:49.241Z,1003.84
2018-10-06T05:30:49.231Z,1003.90
2018-10-06T05:31:49.225Z,1003.88
2018-10-06T05:32:49.215Z,1003.88
2018-10-06T05:33:49.208Z,1003.85
2018-10-06T05:34:49.202Z,1003.85
2018-10-06T05:35:49.195Z,1003.83
2018-10-06T05:36:49.191Z,1003.86
2018-10-06T05:37:49.184Z,1003.88
2018-10-06T05:38:49.170Z,1003.86
2018-10-06T05:39:49.176Z,1003.85
2018-10-06T05:40:49.155Z,1003.84
2018-10-06T05:41:49.153Z,1003.85
2018-10-06T05:42:49.149Z,1003.84
2018-10-06T05:43:49.137Z,1003.82
2018-10-06T05:44:49.131Z,1003.80
2018-10-06T05:45:49.122Z,1003.80
2018-10-06T05:46:49.681Z,1003.81
2018-10-06T05:47:49.166Z,1003.81
2018-10-06T05:48:49.105Z,1003.82
2018-10-06T05:49:49.095Z,1003.76
2018-10-06T05:50:49.094Z,1003.78
2018-10-06T05:51:49.076Z,1003.77
2018-10-06T05:52:49.074Z,1003.77
2018-10-06T05:53:49.063Z,1003.75
2018-10-06T05:54:49.057Z,1003.73
2018-10-06T05:55:49.054Z,1003.70
2018-10-06T05:56:49.046Z,1003.70
2018-10-06T05:57:49.035Z,1003.73
2018-10-06T05:58:49.029Z,1003.74
2018-10-06T05:59:49.021Z,1003.74
2018-10-06T06:00:49.012Z,1003.70
2018-10-06T06:01:49.010Z,1003.69
2018-10-06T06:02:49.004Z,1003.74
2018-10-06T06:03:48.996Z,1003.76
2018-10-06T06:04:48.989Z,1003.70
2018-10-06T06:05:48.987Z,1003.71
2018-10-06T06:06:48.971Z,1003.70
2018-10-06T06:07:48.965Z,1003.79
2018-10-06T06:08:48.957Z,1003.74
2018-10-06T06:09:48.991Z,1003.77
2018-10-06T06:10:48.947Z,1003.75
2018-10-06T06:11:48.939Z,1003.75
2018-10-06T06:12:48.935Z,1003.73
2018-10-06T06:13:48.921Z,1003.72
2018-10-06T06:14:48.914Z,1003.74
2018-10-06T06:15:48.965Z,1003.72
2018-10-06T06:16:48.902Z,1003.72
2018-10-06T06:17:48.896Z,1003.70
2018-10-06T06:18:48.889Z,1003.70
2018-10-06T06:19:48.885Z,1003.70
2018-10-06T06:20:48.873Z,1003.68
2018-10-06T06:21:48.861Z,1003.67
2018-10-06T06:22:48.863Z,1003.63
2018-10-06T06:23:48.908Z,1003.61
2018-10-06T06:24:48.847Z,1003.61
2018-10-06T06:25:48.844Z,1003.60
2018-10-06T06:26:48.832Z,1003.63
2018-10-06T06:27:48.826Z,1003.65
2018-10-06T06:28:48.820Z,1003.67
2018-10-06T06:29:48.807Z,1003.64
2018-10-06T06:30:48.879Z,1003.65
2018-10-06T06:31:48.796Z,1003.62
2018-10-06T06:32:48.787Z,1003.65
2018-10-06T06:33:48.781Z,1003.66
2018-10-06T06:34:48.775Z,1003.66
2018-10-06T06:35:48.764Z,1003.69
2018-10-06T06:36:48.762Z,1003.68
2018-10-06T06:37:48.755Z,1003.67
2018-10-06T06:38:48.749Z,1003.71
2018-10-06T06:39:48.737Z,1003.66
2018-10-06T06:40:48.732Z,1003.64
2018-10-06T06:41:48.726Z,1003.66
2018-10-06T06:42:48.719Z,1003.67
2018-10-06T06:43:48.766Z,1003.66
2018-10-06T06:44:48.696Z,1003.70
2018-10-06T06:45:48.709Z,1003.72
2018-10-06T06:46:48.690Z,1003.70
2018-10-06T06:47:48.681Z,1003.68
2018-10-06T06:48:48.677Z,1003.72
2018-10-06T06:49:48.672Z,1003.71
2018-10-06T06:50:48.661Z,1003.71
2018-10-06T06:51:48.659Z,1003.68
2018-10-06T06:52:48.644Z,1003.70
2018-10-06T06:53:48.644Z,1003.71
2018-10-06T06:54:48.641Z,1003.68
2018-10-06T06:55:48.629Z,1003.66
2018-10-06T06:56:48.619Z,1003.64
2018-10-06T06:57:48.615Z,1003.68
2018-10-06T06:58:48.603Z,1003.67
2018-10-06T06:59:48.594Z,1003.67
2018-10-06T07:00:48.601Z,1003.68
2018-10-06T07:01:48.588Z,1003.69
2018-10-06T07:02:48.576Z,1003.69
2018-10-06T07:03:48.571Z,1003.66
2018-10-06T07:04:48.569Z,1003.67
2018-10-06T07:05:48.609Z,1003.67
2018-10-06T07:06:48.549Z,1003.67
2018-10-06T07:07:48.538Z,1003.68
2018-10-06T07:08:48.538Z,1003.68
2018-10-06T07:09:48.531Z,1003.65
2018-10-06T07:10:48.523Z,1003.70
2018-10-06T07:11:48.515Z,1003.66
2018-10-06T07:12:48.510Z,1003.66
2018-10-06T07:13:48.503Z,1003.68
2018-10-06T07:14:48.492Z,1003.66
2018-10-06T07:15:48.487Z,1003.66
2018-10-06T07:16:48.483Z,1003.66
2018-10-06T07:17:48.478Z,1003.67
2018-10-06T07:18:48.472Z,1003.65
2018-10-06T07:19:48.462Z,1003.64
2018-10-06T07:20:48.450Z,1003.66
2018-10-06T07:21:48.449Z,1003.61
2018-10-06T07:22:48.437Z,1003.61
2018-10-06T07:23:48.431Z,1003.59
2018-10-06T07:24:48.452Z,1003.56
2018-10-06T07:25:48.422Z,1003.52
2018-10-06T07:26:48.408Z,1003.53
2018-10-06T07:27:48.406Z,1003.50
2018-10-06T07:28:48.400Z,1003.51
2018-10-06T07:29:48.390Z,1003.51
2018-10-06T07:30:48.385Z,1003.47
2018-10-06T07:31:48.377Z,1003.49
2018-10-06T07:32:48.371Z,1003.47
2018-10-06T07:33:48.367Z,1003.50
2018-10-06T07:34:48.364Z,1003.48
2018-10-06T07:35:48.347Z,1003.45
2018-10-06T07:36:48.345Z,1003.42
2018-10-06T07:37:48.334Z,1003.45
2018-10-06T07:38:48.327Z,1003.44
2018-10-06T07:39:48.336Z,1003.44
2018-10-06T07:40:48.319Z,1003.43
2018-10-06T07:41:48.322Z,1003.46
2018-10-06T07:42:48.305Z,1003.42
2018-10-06T07:43:48.305Z,1003.43
2018-10-06T07:44:48.319Z,1003.42
2018-10-06T07:45:48.289Z,1003.40
2018-10-06T07:46:48.281Z,1003.42
2018-10-06T07:47:48.276Z,1003.46
2018-10-06T07:48:48.266Z,1003.45
2018-10-06T07:49:48.262Z,1003.43
2018-10-06T07:50:48.250Z,1003.46
2018-10-06T07:51:48.246Z,1003.44
2018-10-06T07:52:48.238Z,1003.42
2018-10-06T07:53:48.233Z,1003.41
2018-10-06T07:54:48.223Z,1003.46
2018-10-06T07:55:48.219Z,1003.46
2018-10-06T07:56:48.244Z,1003.47
2018-10-06T07:57:48.216Z,1003.45
2018-10-06T07:58:48.222Z,1003.44
2018-10-06T07:59:48.195Z,1003.45
2018-10-06T08:00:48.185Z,1003.44
2018-10-06T08:01:48.184Z,1003.41
2018-10-06T08:02:48.174Z,1003.38
2018-10-06T08:03:48.169Z,1003.36
2018-10-06T08:04:48.160Z,1003.36
2018-10-06T08:05:48.160Z,1003.36
2018-10-06T08:06:48.144Z,1003.34
2018-10-06T08:07:48.147Z,1003.32
2018-10-06T08:08:48.136Z,1003.34
2018-10-06T08:09:48.133Z,1003.31
2018-10-06T08:10:48.120Z,1003.26
2018-10-06T08:11:48.121Z,1003.29
2018-10-06T08:12:48.111Z,1003.27
2018-10-06T08:13:48.111Z,1003.26
2018-10-06T08:14:48.099Z,1003.27
2018-10-06T08:15:48.098Z,1003.23
2018-10-06T08:16:48.088Z,1003.21
2018-10-06T08:17:48.082Z,1003.20
2018-10-06T08:18:48.072Z,1003.18
2018-10-06T08:19:48.070Z,1003.18
2018-10-06T08:20:48.063Z,1003.17
2018-10-06T08:21:48.059Z,1003.16
2018-10-06T08:22:48.049Z,1003.13
2018-10-06T08:23:48.051Z,1003.11
2018-10-06T08:24:48.039Z,1003.12
2018-10-06T08:25:48.036Z,1003.10
2018-10-06T08:26:48.027Z,1003.11
2018-10-06T08:27:48.028Z,1003.11
2018-10-06T08:28:48.027Z,1003.08
2018-10-06T08:29:48.013Z,1003.05
2018-10-06T08:30:48.007Z,1003.09
2018-10-06T08:31:48.002Z,1003.08
2018-10-06T08:32:48.001Z,1003.06
2018-10-06T08:33:47.988Z,1003.08
2018-10-06T08:34:47.981Z,1003.07
2018-10-06T08:35:47.982Z,1003.06
2018-10-06T08:36:47.972Z,1003.08
2018-10-06T08:37:47.971Z,1003.07
2018-10-06T08:38:47.962Z,1003.00
2018-10-06T08:39:47.956Z,1002.99
2018-10-06T08:40:47.950Z,1002.95
2018-10-06T08:41:47.949Z,1002.95
2018-10-06T08:42:47.990Z,1002.99
2018-10-06T08:43:47.938Z,1002.94
2018-10-06T08:44:47.934Z,1002.98
2018-10-06T08:45:47.926Z,1002.98
2018-10-06T08:46:47.927Z,1003.01
2018-10-06T08:47:47.915Z,1002.99
2018-10-06T08:48:47.908Z,1002.99
2018-10-06T08:49:47.941Z,1002.96
2018-10-06T08:50:47.902Z,1002.98
2018-10-06T08:51:47.899Z,1002.98
2018-10-06T08:52:47.893Z,1002.98
2018-10-06T08:53:47.897Z,1002.96
2018-10-06T08:54:47.891Z,1002.95
2018-10-06T08:55:47.895Z,1002.92
2018-10-06T08:56:47.895Z,1002.92
2018-10-06T08:57:47.880Z,1002.92
2018-10-06T08:58:47.888Z,1002.95
2018-10-06T08:59:47.875Z,1002.91
2018-10-06T09:00:47.874Z,1002.91
2018-10-06T09:01:47.883Z,1002.82
2018-10-06T09:02:47.889Z,1002.89
2018-10-06T09:03:47.878Z,1002.78
2018-10-06T09:04:47.878Z,1002.78
2018-10-06T09:05:47.878Z,1002.74
2018-10-06T09:06:47.879Z,1002.77
2018-10-06T09:07:47.881Z,1002.82
2018-10-06T09:08:47.882Z,1002.81
2018-10-06T09:09:47.889Z,1002.81
2018-10-06T09:10:47.933Z,1002.85
2018-10-06T09:11:48.774Z,1002.87
2018-10-06T09:12:47.882Z,1002.88
2018-10-06T09:13:47.887Z,1002.85
2018-10-06T09:14:47.897Z,1002.88
2018-10-06T09:15:47.899Z,1002.87
2018-10-06T09:16:47.895Z,1002.86
2018-10-06T09:17:47.919Z,1002.85
2018-10-06T09:18:47.905Z,1002.80
2018-10-06T09:19:47.920Z,1002.80
2018-10-06T09:20:47.917Z,1002.83
2018-10-06T09:21:47.921Z,1002.79
2018-10-06T09:22:47.928Z,1002.83
2018-10-06T09:23:47.916Z,1002.78
2018-10-06T09:24:47.922Z,1002.80
2018-10-06T09:25:47.927Z,1002.81
2018-10-06T09:26:47.928Z,1002.83
2018-10-06T09:27:47.935Z,1002.84
2018-10-06T09:28:47.945Z,1002.85
2018-10-06T09:29:47.944Z,1002.89
2018-10-06T09:30:47.957Z,1002.83
2018-10-06T09:31:47.949Z,1002.86
2018-10-06T09:32:47.953Z,1002.86
2018-10-06T09:33:47.953Z,1002.78
2018-10-06T09:34:47.958Z,1002.79
2018-10-06T09:35:47.966Z,1002.79
2018-10-06T09:36:47.967Z,1002.74
2018-10-06T09:37:47.963Z,1002.77
2018-10-06T09:38:47.978Z,1002.77
2018-10-06T09:39:47.987Z,1002.78
2018-10-06T09:40:47.997Z,1002.77
2018-10-06T09:41:48.029Z,1002.69
2018-10-06T09:42:48.125Z,1002.69
2018-10-06T09:43:47.994Z,1002.72
2018-10-06T09:44:47.997Z,1002.66
2018-10-06T09:45:48.001Z,1002.65
2018-10-06T09:46:48.007Z,1002.62
2018-10-06T09:47:48.014Z,1002.61
2018-10-06T09:48:48.020Z,1002.58
2018-10-06T09:49:48.022Z,1002.62
2018-10-06T09:50:48.028Z,1002.64
2018-10-06T09:51:48.032Z,1002.60
2018-10-06T09:52:48.038Z,1002.60
2018-10-06T09:53:48.159Z,1002.63
2018-10-06T09:54:48.045Z,1002.56
2018-10-06T09:55:48.050Z,1002.56
2018-10-06T09:56:48.059Z,1002.56
2018-10-06T09:57:48.063Z,1002.55
2018-10-06T09:58:48.068Z,1002.51
2018-10-06T09:59:48.076Z,1002.46
2018-10-06T10:00:48.074Z,1002.55
2018-10-06T10:01:48.080Z,1002.50
2018-10-06T10:02:48.088Z,1002.51
2018-10-06T10:03:48.088Z,1002.49
2018-10-06T10:04:48.098Z,1002.47
2018-10-06T10:05:48.158Z,1002.44
2018-10-06T10:06:48.109Z,1002.45
2018-10-06T10:07:48.111Z,1002.46
2018-10-06T10:08:48.115Z,1002.47
2018-10-06T10:09:48.144Z,1002.53
2018-10-06T10:10:48.153Z,1002.40
2018-10-06T10:11:48.133Z,1002.37
2018-10-06T10:12:48.227Z,1002.36
2018-10-06T10:13:48.141Z,1002.33
2018-10-06T10:14:48.149Z,1002.31
2018-10-06T10:15:48.153Z,1002.32
2018-10-06T10:16:48.158Z,1002.29
2018-10-06T10:17:48.252Z,1002.27
2018-10-06T10:18:48.173Z,1002.25
2018-10-06T10:19:48.175Z,1002.23
2018-10-06T10:20:48.182Z,1002.24
2018-10-06T10:21:48.295Z,1002.24
2018-10-06T10:22:48.215Z,1002.25
2018-10-06T10:23:48.278Z,1002.20
2018-10-06T10:24:48.203Z,1002.19
2018-10-06T10:25:48.214Z,1002.25
2018-10-06T10:26:48.215Z,1002.20
2018-10-06T10:27:48.216Z,1002.17
2018-10-06T10:28:48.256Z,1002.17
2018-10-06T10:29:48.238Z,1002.15
2018-10-06T10:30:48.237Z,1002.14
2018-10-06T10:31:48.239Z,1002.16
2018-10-06T10:32:48.244Z,1002.14
2018-10-06T10:33:48.254Z,1002.10
2018-10-06T10:34:48.262Z,1002.04
2018-10-06T10:35:48.274Z,1002.08
2018-10-06T10:36:48.268Z,1002.08
2018-10-06T10:37:48.273Z,1002.05
2018-10-06T10:38:48.281Z,1002.03
2018-10-06T10:39:48.387Z,1002.01
2018-10-06T10:40:48.310Z,1002.03
2018-10-06T10:41:48.298Z,1001.96
2018-10-06T10:42:48.302Z,1001.98
2018-10-06T10:43:48.337Z,1001.96
2018-10-06T10:44:48.314Z,1001.92
2018-10-06T10:45:48.327Z,1001.97
2018-10-06T10:46:48.329Z,1001.94
2018-10-06T10:47:48.329Z,1001.92
2018-10-06T10:48:48.346Z,1001.90
2018-10-06T10:49:48.342Z,1001.87
2018-10-06T10:50:48.443Z,1001.85
2018-10-06T10:51:48.355Z,1001.84
2018-10-06T10:52:48.364Z,1001.87
2018-10-06T10:53:48.365Z,1001.81
2018-10-06T10:54:48.376Z,1001.79
2018-10-06T10:55:48.381Z,1001.81
2018-10-06T10:56:48.387Z,1001.79
2018-10-06T10:57:48.428Z,1001.76
2018-10-06T10:58:48.395Z,1001.76
2018-10-06T10:59:48.568Z,1001.75
2018-10-06T11:00:48.414Z,1001.71
2018-10-06T11:01:48.420Z,1001.72
2018-10-06T11:02:48.417Z,1001.71
2018-10-06T11:03:48.461Z,1001.72
2018-10-06T11:04:48.484Z,1001.67
2018-10-06T11:05:48.440Z,1001.71
2018-10-06T11:06:48.442Z,1001.71
2018-10-06T11:07:48.449Z,1001.69
2018-10-06T11:08:48.454Z,1001.68
2018-10-06T11:09:48.463Z,1001.69
2018-10-06T11:10:48.467Z,1001.67
2018-10-06T11:11:48.475Z,1001.64
2018-10-06T11:12:48.482Z,1001.68
2018-10-06T11:13:48.485Z,1001.67
2018-10-06T11:14:48.490Z,1001.64
2018-10-06T11:15:48.498Z,1001.61
2018-10-06T11:16:48.505Z,1001.62
2018-10-06T11:17:48.511Z,1001.61
2018-10-06T11:18:48.512Z,1001.56
2018-10-06T11:19:48.524Z,1001.58
2018-10-06T11:20:48.530Z,1001.60
2018-10-06T11:21:48.536Z,1001.60
2018-10-06T11:22:48.539Z,1001.54
2018-10-06T11:23:48.547Z,1001.58
2018-10-06T11:24:48.581Z,1001.55
2018-10-06T11:25:48.558Z,1001.54
2018-10-06T11:26:48.563Z,1001.52
2018-10-06T11:27:48.571Z,1001.52
2018-10-06T11:28:48.569Z,1001.48
2018-10-06T11:29:48.583Z,1001.50
2018-10-06T11:30:48.594Z,1001.56
2018-10-06T11:31:48.587Z,1001.48
2018-10-06T11:32:48.601Z,1001.51
2018-10-06T11:33:48.602Z,1001.56
2018-10-06T11:34:48.612Z,1001.50
2018-10-06T11:35:48.617Z,1001.48
2018-10-06T11:36:48.626Z,1001.46
2018-10-06T11:37:48.884Z,1001.41
2018-10-06T11:38:48.638Z,1001.42
2018-10-06T11:39:48.640Z,1001.41
2018-10-06T11:40:48.648Z,1001.39
2018-10-06T11:41:48.655Z,1001.32
2018-10-06T11:42:48.661Z,1001.33
2018-10-06T11:43:48.664Z,1001.30
2018-10-06T11:44:48.675Z,1001.30
2018-10-06T11:45:48.680Z,1001.30
2018-10-06T11:46:48.681Z,1001.30
2018-10-06T11:47:48.686Z,1001.30
2018-10-06T11:48:48.698Z,1001.29
2018-10-06T11:49:48.755Z,1001.28
2018-10-06T11:50:48.702Z,1001.22
2018-10-06T11:51:48.710Z,1001.27
2018-10-06T11:52:48.714Z,1001.30
2018-10-06T11:53:48.724Z,1001.30
2018-10-06T11:54:48.725Z,1001.24
2018-10-06T11:55:48.727Z,1001.25
2018-10-06T11:56:48.734Z,1001.19
2018-10-06T11:57:48.740Z,1001.19
2018-10-06T11:58:48.746Z,1001.19
2018-10-06T11:59:48.784Z,1001.14
2018-10-06T12:00:48.845Z,1001.16
2018-10-06T12:01:48.768Z,1001.10
2018-10-06T12:02:48.770Z,1001.15
2018-10-06T12:03:48.775Z,1001.20
2018-10-06T12:04:48.786Z,1001.11
2018-10-06T12:05:48.795Z,1001.16